sensor_id;sensor_type;location;lat;lon;timestamp;temperature;humidity
7194;DHT22;3638;48.820;9.244;2023-06-24T00:01:43;16.50;99.90
7194;DHT22;3638;48.820;9.244;2023-06-24T00:04:10;16.50;99.90
7194;DHT22;3638;48.820;9.244;2023-06-24T00:06:39;16.40;99.90
7194;DHT22;3638;48.820;9.244;2023-06-24T00:09:06;16.40;99.90
7194;DHT22;3638;48.820;9.244;2023-06-24T00:11:33;16.40;99.90
7194;DHT22;3638;48.820;9.244;2023-06-24T00:16:27;16.60;99.90
7194;DHT22;3638;48.820;9.244;2023-06-24T00:18:55;16.60;99.90
7194;DHT22;3638;48.820;9.244;2023-06-24T00:21:27;16.60;99.90
7194;DHT22;3638;48.820;9.244;2023-06-24T00:23:57;16.50;99.90
7194;DHT22;3638;48.820;9.244;2023-06-24T00:26:24;16.50;99.90
7194;DHT22;3638;48.820;9.244;2023-06-24T00:31:19;16.30;99.90
7194;DHT22;3638;48.820;9.244;2023-06-24T00:33:46;16.20;99.90
7194;DHT22;3638;48.820;9.244;2023-06-24T00:38:42;16.20;99.90
7194;DHT22;3638;48.820;9.244;2023-06-24T00:41:10;16.20;99.90
7194;DHT22;3638;48.820;9.244;2023-06-24T00:43:37;16.10;99.90
7194;DHT22;3638;48.820;9.244;2023-06-24T00:46:04;16.10;99.90
7194;DHT22;3638;48.820;9.244;2023-06-24T00:48:32;16.10;99.90
7194;DHT22;3638;48.820;9.244;2023-06-24T00:55:55;16.10;99.90
7194;DHT22;3638;48.820;9.244;2023-06-24T00:58:24;16.20;99.90
7194;DHT22;3638;48.820;9.244;2023-06-24T01:00:51;16.20;99.90
7194;DHT22;3638;48.820;9.244;2023-06-24T01:03:23;16.20;99.90
7194;DHT22;3638;48.820;9.244;2023-06-24T01:05:50;16.30;99.90
7194;DHT22;3638;48.820;9.244;2023-06-24T01:10:48;16.20;99.90
7194;DHT22;3638;48.820;9.244;2023-06-24T01:13:15;16.20;99.90
7194;DHT22;3638;48.820;9.244;2023-06-24T01:15:44;16.10;99.90
7194;DHT22;3638;48.820;9.244;2023-06-24T01:18:16;16.00;99.90
7194;DHT22;3638;48.820;9.244;2023-06-24T01:20:49;16.00;99.90
7194;DHT22;3638;48.820;9.244;2023-06-24T01:23:50;16.10;99.90
7194;DHT22;3638;48.820;9.244;2023-06-24T01:29:47;16.20;99.90
7194;DHT22;3638;48.820;9.244;2023-06-24T01:32:25;16.30;99.90
7194;DHT22;3638;48.820;9.244;2023-06-24T01:34:57;16.50;99.90
7194;DHT22;3638;48.820;9.244;2023-06-24T01:37:28;16.50;99.90
7194;DHT22;3638;48.820;9.244;2023-06-24T01:40:04;16.60;99.90
7194;DHT22;3638;48.820;9.244;2023-06-24T01:42:36;16.60;99.90
7194;DHT22;3638;48.820;9.244;2023-06-24T01:45:07;16.70;99.90
7194;DHT22;3638;48.820;9.244;2023-06-24T01:47:40;16.70;99.90
7194;DHT22;3638;48.820;9.244;2023-06-24T01:50:11;16.70;99.90
7194;DHT22;3638;48.820;9.244;2023-06-24T01:52:41;16.90;99.90
7194;DHT22;3638;48.820;9.244;2023-06-24T01:55:10;16.90;99.90
7194;DHT22;3638;48.820;9.244;2023-06-24T01:57:40;16.80;99.90
7194;DHT22;3638;48.820;9.244;2023-06-24T02:00:09;16.90;99.90
7194;DHT22;3638;48.820;9.244;2023-06-24T02:02:39;16.80;99.90
7194;DHT22;3638;48.820;9.244;2023-06-24T02:05:09;16.90;99.90
7194;DHT22;3638;48.820;9.244;2023-06-24T02:07:37;16.80;99.90
7194;DHT22;3638;48.820;9.244;2023-06-24T02:10:06;16.80;99.90
7194;DHT22;3638;48.820;9.244;2023-06-24T02:12:35;16.80;99.90
7194;DHT22;3638;48.820;9.244;2023-06-24T02:15:03;16.70;99.90
7194;DHT22;3638;48.820;9.244;2023-06-24T02:17:32;16.70;99.90
7194;DHT22;3638;48.820;9.244;2023-06-24T02:20:01;16.60;99.90
7194;DHT22;3638;48.820;9.244;2023-06-24T02:22:31;16.60;99.90
7194;DHT22;3638;48.820;9.244;2023-06-24T02:24:58;16.60;99.90
7194;DHT22;3638;48.820;9.244;2023-06-24T02:27:25;16.60;99.90
7194;DHT22;3638;48.820;9.244;2023-06-24T02:29:53;16.60;99.90
7194;DHT22;3638;48.820;9.244;2023-06-24T02:37:16;16.60;99.90
7194;DHT22;3638;48.820;9.244;2023-06-24T02:39:43;16.60;99.90
7194;DHT22;3638;48.820;9.244;2023-06-24T02:42:11;16.50;99.90
7194;DHT22;3638;48.820;9.244;2023-06-24T02:44:38;16.50;99.90
7194;DHT22;3638;48.820;9.244;2023-06-24T02:47:07;16.50;99.90
7194;DHT22;3638;48.820;9.244;2023-06-24T02:49:37;16.50;99.90
7194;DHT22;3638;48.820;9.244;2023-06-24T02:52:05;16.50;99.90
7194;DHT22;3638;48.820;9.244;2023-06-24T02:54:35;16.40;99.90
7194;DHT22;3638;48.820;9.244;2023-06-24T02:57:04;16.40;99.90
7194;DHT22;3638;48.820;9.244;2023-06-24T02:59:32;16.30;99.90
7194;DHT22;3638;48.820;9.244;2023-06-24T03:01:59;16.30;99.90
7194;DHT22;3638;48.820;9.244;2023-06-24T03:06:54;16.40;99.90
7194;DHT22;3638;48.820;9.244;2023-06-24T03:11:50;16.30;99.90
7194;DHT22;3638;48.820;9.244;2023-06-24T03:19:11;16.20;99.90
7194;DHT22;3638;48.820;9.244;2023-06-24T03:21:38;16.10;99.90
7194;DHT22;3638;48.820;9.244;2023-06-24T03:24:06;16.10;99.90
7194;DHT22;3638;48.820;9.244;2023-06-24T03:26:33;16.10;99.90
7194;DHT22;3638;48.820;9.244;2023-06-24T03:29:02;16.10;99.90
7194;DHT22;3638;48.820;9.244;2023-06-24T03:38:51;16.10;99.90
7194;DHT22;3638;48.820;9.244;2023-06-24T03:43:46;15.90;99.90
7194;DHT22;3638;48.820;9.244;2023-06-24T03:46:15;15.80;99.90
7194;DHT22;3638;48.820;9.244;2023-06-24T03:58:31;16.00;99.90
7194;DHT22;3638;48.820;9.244;2023-06-24T04:00:59;16.00;99.90
7194;DHT22;3638;48.820;9.244;2023-06-24T04:03:29;16.20;99.90
7194;DHT22;3638;48.820;9.244;2023-06-24T04:05:57;16.30;99.90
7194;DHT22;3638;48.820;9.244;2023-06-24T04:08:27;16.40;99.90
7194;DHT22;3638;48.820;9.244;2023-06-24T04:13:22;16.50;99.90
7194;DHT22;3638;48.820;9.244;2023-06-24T04:15:49;16.40;99.90
7194;DHT22;3638;48.820;9.244;2023-06-24T04:18:16;16.30;99.90
7194;DHT22;3638;48.820;9.244;2023-06-24T04:20:44;16.50;99.90
7194;DHT22;3638;48.820;9.244;2023-06-24T04:28:07;17.10;99.90
7194;DHT22;3638;48.820;9.244;2023-06-24T04:33:04;17.40;99.90
7194;DHT22;3638;48.820;9.244;2023-06-24T04:35:31;17.90;99.90
7194;DHT22;3638;48.820;9.244;2023-06-24T04:37:59;18.20;99.90
7194;DHT22;3638;48.820;9.244;2023-06-24T04:40:26;18.50;99.90
7194;DHT22;3638;48.820;9.244;2023-06-24T04:47:47;19.70;99.90
7194;DHT22;3638;48.820;9.244;2023-06-24T04:52:41;19.60;99.90
7194;DHT22;3638;48.820;9.244;2023-06-24T04:55:09;19.60;99.90
7194;DHT22;3638;48.820;9.244;2023-06-24T05:00:04;19.50;99.90
7194;DHT22;3638;48.820;9.244;2023-06-24T05:02:32;19.50;99.90
7194;DHT22;3638;48.820;9.244;2023-06-24T05:04:59;20.00;99.90
7194;DHT22;3638;48.820;9.244;2023-06-24T05:07:26;20.30;99.90
7194;DHT22;3638;48.820;9.244;2023-06-24T05:09:53;20.30;99.90
7194;DHT22;3638;48.820;9.244;2023-06-24T05:12:21;20.10;99.90
7194;DHT22;3638;48.820;9.244;2023-06-24T05:14:50;20.10;99.90
7194;DHT22;3638;48.820;9.244;2023-06-24T05:17:18;19.80;99.90
7194;DHT22;3638;48.820;9.244;2023-06-24T05:19:45;19.80;99.90
7194;DHT22;3638;48.820;9.244;2023-06-24T05:24:39;20.10;99.90
7194;DHT22;3638;48.820;9.244;2023-06-24T05:27:07;20.20;99.90
7194;DHT22;3638;48.820;9.244;2023-06-24T05:29:35;20.30;99.90
7194;DHT22;3638;48.820;9.244;2023-06-24T05:32:02;17.20;99.90
7194;DHT22;3638;48.820;9.244;2023-06-24T05:34:30;20.40;99.90
7194;DHT22;3638;48.820;9.244;2023-06-24T05:36:59;20.50;99.90
7194;DHT22;3638;48.820;9.244;2023-06-24T05:41:53;21.20;99.90
7194;DHT22;3638;48.820;9.244;2023-06-24T05:44:20;21.50;99.90
7194;DHT22;3638;48.820;9.244;2023-06-24T05:46:49;21.40;99.90
7194;DHT22;3638;48.820;9.244;2023-06-24T05:51:43;21.30;99.90
7194;DHT22;3638;48.820;9.244;2023-06-24T05:54:10;21.30;99.90
7194;DHT22;3638;48.820;9.244;2023-06-24T05:56:37;21.40;99.90
7194;DHT22;3638;48.820;9.244;2023-06-24T05:59:04;21.70;99.90
7194;DHT22;3638;48.820;9.244;2023-06-24T06:01:31;21.60;99.90
7194;DHT22;3638;48.820;9.244;2023-06-24T06:03:59;22.00;99.90
7194;DHT22;3638;48.820;9.244;2023-06-24T06:06:26;22.10;99.90
7194;DHT22;3638;48.820;9.244;2023-06-24T06:08:53;22.20;99.90
7194;DHT22;3638;48.820;9.244;2023-06-24T06:11:20;22.30;99.90
7194;DHT22;3638;48.820;9.244;2023-06-24T06:13:46;22.60;99.90
7194;DHT22;3638;48.820;9.244;2023-06-24T06:18:41;22.70;99.90
7194;DHT22;3638;48.820;9.244;2023-06-24T06:21:09;22.80;99.90
7194;DHT22;3638;48.820;9.244;2023-06-24T06:23:36;22.80;99.90
7194;DHT22;3638;48.820;9.244;2023-06-24T06:26:02;23.00;99.90
7194;DHT22;3638;48.820;9.244;2023-06-24T06:33:24;23.30;99.10
7194;DHT22;3638;48.820;9.244;2023-06-24T06:35:50;23.20;98.60
7194;DHT22;3638;48.820;9.244;2023-06-24T06:38:19;23.30;98.70
7194;DHT22;3638;48.820;9.244;2023-06-24T06:40:46;23.60;98.50
7194;DHT22;3638;48.820;9.244;2023-06-24T06:43:12;23.70;97.50
7194;DHT22;3638;48.820;9.244;2023-06-24T06:48:07;24.20;97.10
7194;DHT22;3638;48.820;9.244;2023-06-24T06:50:34;24.10;96.60
7194;DHT22;3638;48.820;9.244;2023-06-24T06:53:01;24.50;96.60
7194;DHT22;3638;48.820;9.244;2023-06-24T06:55:29;24.30;96.40
7194;DHT22;3638;48.820;9.244;2023-06-24T06:57:56;24.30;96.80
7194;DHT22;3638;48.820;9.244;2023-06-24T07:00:23;24.50;96.70
7194;DHT22;3638;48.820;9.244;2023-06-24T07:02:50;24.50;96.50
7194;DHT22;3638;48.820;9.244;2023-06-24T07:05:16;24.80;95.40
7194;DHT22;3638;48.820;9.244;2023-06-24T07:07:43;25.30;95.40
7194;DHT22;3638;48.820;9.244;2023-06-24T07:10:11;25.30;94.90
7194;DHT22;3638;48.820;9.244;2023-06-24T07:12:40;25.10;94.90
7194;DHT22;3638;48.820;9.244;2023-06-24T07:15:07;25.10;95.20
7194;DHT22;3638;48.820;9.244;2023-06-24T07:17:35;25.20;94.70
7194;DHT22;3638;48.820;9.244;2023-06-24T07:20:03;25.70;94.00
7194;DHT22;3638;48.820;9.244;2023-06-24T07:22:30;25.70;93.20
7194;DHT22;3638;48.820;9.244;2023-06-24T07:24:57;25.80;92.20
7194;DHT22;3638;48.820;9.244;2023-06-24T07:27:25;25.90;92.40
7194;DHT22;3638;48.820;9.244;2023-06-24T07:29:53;26.40;91.00
7194;DHT22;3638;48.820;9.244;2023-06-24T07:32:20;26.60;91.40
7194;DHT22;3638;48.820;9.244;2023-06-24T07:34:47;26.70;90.60
7194;DHT22;3638;48.820;9.244;2023-06-24T07:37:14;26.70;91.00
7194;DHT22;3638;48.820;9.244;2023-06-24T07:39:41;26.90;91.10
7194;DHT22;3638;48.820;9.244;2023-06-24T07:42:08;26.80;90.40
7194;DHT22;3638;48.820;9.244;2023-06-24T07:44:35;27.40;89.00
7194;DHT22;3638;48.820;9.244;2023-06-24T07:47:06;27.40;90.00
7194;DHT22;3638;48.820;9.244;2023-06-24T07:49:33;27.70;87.40
7194;DHT22;3638;48.820;9.244;2023-06-24T07:52:00;27.30;88.00
7194;DHT22;3638;48.820;9.244;2023-06-24T07:54:27;28.20;87.90
7194;DHT22;3638;48.820;9.244;2023-06-24T07:56:54;27.10;88.90
7194;DHT22;3638;48.820;9.244;2023-06-24T07:59:21;27.10;87.90
7194;DHT22;3638;48.820;9.244;2023-06-24T08:01:48;27.20;87.40
7194;DHT22;3638;48.820;9.244;2023-06-24T08:04:16;27.30;85.00
7194;DHT22;3638;48.820;9.244;2023-06-24T08:06:43;27.80;84.70
7194;DHT22;3638;48.820;9.244;2023-06-24T08:09:10;27.80;84.70
7194;DHT22;3638;48.820;9.244;2023-06-24T08:11:36;27.90;84.90
7194;DHT22;3638;48.820;9.244;2023-06-24T08:14:03;27.80;83.60
7194;DHT22;3638;48.820;9.244;2023-06-24T08:16:30;27.80;82.80
7194;DHT22;3638;48.820;9.244;2023-06-24T08:18:57;27.40;84.00
7194;DHT22;3638;48.820;9.244;2023-06-24T08:21:25;27.40;83.60
7194;DHT22;3638;48.820;9.244;2023-06-24T08:23:52;27.30;85.40
7194;DHT22;3638;48.820;9.244;2023-06-24T08:26:19;27.30;84.60
7194;DHT22;3638;48.820;9.244;2023-06-24T08:28:47;27.30;83.40
7194;DHT22;3638;48.820;9.244;2023-06-24T08:31:14;27.30;83.50
7194;DHT22;3638;48.820;9.244;2023-06-24T08:33:44;27.20;83.10
7194;DHT22;3638;48.820;9.244;2023-06-24T08:36:11;27.20;83.90
7194;DHT22;3638;48.820;9.244;2023-06-24T08:38:40;27.70;84.10
7194;DHT22;3638;48.820;9.244;2023-06-24T08:41:07;27.60;85.00
7194;DHT22;3638;48.820;9.244;2023-06-24T08:43:34;27.50;83.00
7194;DHT22;3638;48.820;9.244;2023-06-24T08:46:01;27.50;84.40
7194;DHT22;3638;48.820;9.244;2023-06-24T08:48:29;27.60;83.70
7194;DHT22;3638;48.820;9.244;2023-06-24T08:50:58;27.60;81.60
7194;DHT22;3638;48.820;9.244;2023-06-24T08:53:27;27.70;81.30
7194;DHT22;3638;48.820;9.244;2023-06-24T08:55:56;27.60;80.50
7194;DHT22;3638;48.820;9.244;2023-06-24T08:58:24;27.90;78.80
7194;DHT22;3638;48.820;9.244;2023-06-24T09:00:51;27.90;78.10
7194;DHT22;3638;48.820;9.244;2023-06-24T09:03:19;29.50;80.30
7194;DHT22;3638;48.820;9.244;2023-06-24T09:05:45;28.00;77.40
7194;DHT22;3638;48.820;9.244;2023-06-24T09:08:13;27.50;78.10
7194;DHT22;3638;48.820;9.244;2023-06-24T09:10:41;26.90;80.20
7194;DHT22;3638;48.820;9.244;2023-06-24T09:13:09;27.30;79.60
7194;DHT22;3638;48.820;9.244;2023-06-24T09:15:37;27.30;79.00
7194;DHT22;3638;48.820;9.244;2023-06-24T09:18:05;27.10;80.30
7194;DHT22;3638;48.820;9.244;2023-06-24T09:20:33;27.40;79.20
7194;DHT22;3638;48.820;9.244;2023-06-24T09:23:05;28.00;78.30
7194;DHT22;3638;48.820;9.244;2023-06-24T09:25:31;28.10;77.40
7194;DHT22;3638;48.820;9.244;2023-06-24T09:27:59;28.50;76.30
7194;DHT22;3638;48.820;9.244;2023-06-24T09:30:27;28.70;75.90
7194;DHT22;3638;48.820;9.244;2023-06-24T09:32:55;28.40;74.40
7194;DHT22;3638;48.820;9.244;2023-06-24T09:35:23;28.40;72.20
7194;DHT22;3638;48.820;9.244;2023-06-24T09:37:52;28.50;74.30
7194;DHT22;3638;48.820;9.244;2023-06-24T09:40:19;28.30;73.50
7194;DHT22;3638;48.820;9.244;2023-06-24T09:42:50;28.40;73.40
7194;DHT22;3638;48.820;9.244;2023-06-24T09:45:23;28.30;72.60
7194;DHT22;3638;48.820;9.244;2023-06-24T09:47:52;28.40;70.70
7194;DHT22;3638;48.820;9.244;2023-06-24T09:50:19;28.30;69.90
7194;DHT22;3638;48.820;9.244;2023-06-24T09:52:46;28.00;70.00
7194;DHT22;3638;48.820;9.244;2023-06-24T09:55:15;28.10;72.60
7194;DHT22;3638;48.820;9.244;2023-06-24T09:57:45;28.10;71.70
7194;DHT22;3638;48.820;9.244;2023-06-24T10:00:14;28.20;69.30
7194;DHT22;3638;48.820;9.244;2023-06-24T10:02:43;28.10;70.10
7194;DHT22;3638;48.820;9.244;2023-06-24T10:05:13;27.70;69.40
7194;DHT22;3638;48.820;9.244;2023-06-24T10:07:40;27.70;70.60
7194;DHT22;3638;48.820;9.244;2023-06-24T10:10:08;27.90;70.90
7194;DHT22;3638;48.820;9.244;2023-06-24T10:12:36;27.60;68.70
7194;DHT22;3638;48.820;9.244;2023-06-24T10:15:04;27.30;69.70
7194;DHT22;3638;48.820;9.244;2023-06-24T10:17:32;27.40;68.60
7194;DHT22;3638;48.820;9.244;2023-06-24T10:20:03;27.00;67.80
7194;DHT22;3638;48.820;9.244;2023-06-24T10:22:33;27.10;69.90
7194;DHT22;3638;48.820;9.244;2023-06-24T10:25:04;27.40;69.40
7194;DHT22;3638;48.820;9.244;2023-06-24T10:27:38;27.40;70.80
7194;DHT22;3638;48.820;9.244;2023-06-24T10:30:08;27.40;68.20
7194;DHT22;3638;48.820;9.244;2023-06-24T10:32:40;27.50;67.20
7194;DHT22;3638;48.820;9.244;2023-06-24T10:35:21;27.10;67.30
7194;DHT22;3638;48.820;9.244;2023-06-24T10:37:58;27.50;68.10
7194;DHT22;3638;48.820;9.244;2023-06-24T10:40:36;27.40;67.90
7194;DHT22;3638;48.820;9.244;2023-06-24T10:43:25;27.70;68.10
7194;DHT22;3638;48.820;9.244;2023-06-24T10:45:54;28.10;68.40
7194;DHT22;3638;48.820;9.244;2023-06-24T10:48:22;27.90;69.10
7194;DHT22;3638;48.820;9.244;2023-06-24T10:50:49;27.80;70.70
7194;DHT22;3638;48.820;9.244;2023-06-24T10:53:17;28.00;69.00
7194;DHT22;3638;48.820;9.244;2023-06-24T10:55:45;28.00;67.40
7194;DHT22;3638;48.820;9.244;2023-06-24T10:58:13;28.00;68.10
7194;DHT22;3638;48.820;9.244;2023-06-24T11:00:41;28.10;68.80
7194;DHT22;3638;48.820;9.244;2023-06-24T11:03:10;27.70;69.90
7194;DHT22;3638;48.820;9.244;2023-06-24T11:05:39;27.40;70.60
7194;DHT22;3638;48.820;9.244;2023-06-24T11:08:08;27.00;72.00
7194;DHT22;3638;48.820;9.244;2023-06-24T11:10:43;26.90;71.00
7194;DHT22;3638;48.820;9.244;2023-06-24T11:13:11;26.80;71.50
7194;DHT22;3638;48.820;9.244;2023-06-24T11:15:38;26.80;73.50
7194;DHT22;3638;48.820;9.244;2023-06-24T11:18:08;26.80;72.80
7194;DHT22;3638;48.820;9.244;2023-06-24T11:20:36;26.80;71.80
7194;DHT22;3638;48.820;9.244;2023-06-24T11:23:06;27.10;71.90
7194;DHT22;3638;48.820;9.244;2023-06-24T11:25:39;27.30;71.00
7194;DHT22;3638;48.820;9.244;2023-06-24T11:28:14;27.40;70.60
7194;DHT22;3638;48.820;9.244;2023-06-24T11:30:41;27.20;70.20
7194;DHT22;3638;48.820;9.244;2023-06-24T11:33:08;26.90;68.50
7194;DHT22;3638;48.820;9.244;2023-06-24T11:35:35;27.00;70.60
7194;DHT22;3638;48.820;9.244;2023-06-24T11:38:02;27.10;69.40
7194;DHT22;3638;48.820;9.244;2023-06-24T11:40:31;27.20;70.30
7194;DHT22;3638;48.820;9.244;2023-06-24T11:43:00;27.50;68.00
7194;DHT22;3638;48.820;9.244;2023-06-24T11:45:31;27.70;67.20
7194;DHT22;3638;48.820;9.244;2023-06-24T11:48:02;27.70;68.20
7194;DHT22;3638;48.820;9.244;2023-06-24T11:50:35;27.60;65.40
7194;DHT22;3638;48.820;9.244;2023-06-24T11:53:03;27.70;66.30
7194;DHT22;3638;48.820;9.244;2023-06-24T11:55:31;27.60;67.10
7194;DHT22;3638;48.820;9.244;2023-06-24T11:57:59;27.50;67.70
7194;DHT22;3638;48.820;9.244;2023-06-24T12:00:30;27.80;67.40
7194;DHT22;3638;48.820;9.244;2023-06-24T12:02:58;28.00;67.70
7194;DHT22;3638;48.820;9.244;2023-06-24T12:05:27;28.50;65.80
7194;DHT22;3638;48.820;9.244;2023-06-24T12:07:57;28.00;65.10
7194;DHT22;3638;48.820;9.244;2023-06-24T12:10:24;28.10;66.40
7194;DHT22;3638;48.820;9.244;2023-06-24T12:12:52;27.80;66.20
7194;DHT22;3638;48.820;9.244;2023-06-24T12:15:19;27.80;66.80
7194;DHT22;3638;48.820;9.244;2023-06-24T12:17:47;27.70;65.90
7194;DHT22;3638;48.820;9.244;2023-06-24T12:20:14;27.70;66.60
7194;DHT22;3638;48.820;9.244;2023-06-24T12:22:44;28.00;67.60
7194;DHT22;3638;48.820;9.244;2023-06-24T12:25:11;28.10;65.80
7194;DHT22;3638;48.820;9.244;2023-06-24T12:27:38;28.00;65.70
7194;DHT22;3638;48.820;9.244;2023-06-24T12:30:07;27.90;64.00
7194;DHT22;3638;48.820;9.244;2023-06-24T12:32:35;27.90;65.30
7194;DHT22;3638;48.820;9.244;2023-06-24T12:35:04;27.40;65.50
7194;DHT22;3638;48.820;9.244;2023-06-24T12:37:32;27.50;64.90
7194;DHT22;3638;48.820;9.244;2023-06-24T12:40:00;27.50;65.60
7194;DHT22;3638;48.820;9.244;2023-06-24T12:42:27;23.40;62.20
7194;DHT22;3638;48.820;9.244;2023-06-24T12:44:54;27.50;66.10
7194;DHT22;3638;48.820;9.244;2023-06-24T12:47:21;27.80;65.90
7194;DHT22;3638;48.820;9.244;2023-06-24T12:49:49;27.80;64.70
7194;DHT22;3638;48.820;9.244;2023-06-24T12:52:17;27.80;64.90
7194;DHT22;3638;48.820;9.244;2023-06-24T12:54:44;29.00;65.20
7194;DHT22;3638;48.820;9.244;2023-06-24T12:57:11;27.20;64.80
7194;DHT22;3638;48.820;9.244;2023-06-24T12:59:38;27.10;66.00
7194;DHT22;3638;48.820;9.244;2023-06-24T13:02:05;27.40;65.30
7194;DHT22;3638;48.820;9.244;2023-06-24T13:04:32;27.30;63.50
7194;DHT22;3638;48.820;9.244;2023-06-24T13:06:59;27.20;64.80
7194;DHT22;3638;48.820;9.244;2023-06-24T13:09:27;27.20;64.20
7194;DHT22;3638;48.820;9.244;2023-06-24T13:11:54;27.20;64.90
7194;DHT22;3638;48.820;9.244;2023-06-24T13:14:21;27.20;64.70
7194;DHT22;3638;48.820;9.244;2023-06-24T13:16:50;27.20;66.10
7194;DHT22;3638;48.820;9.244;2023-06-24T13:19:17;27.30;63.90
7194;DHT22;3638;48.820;9.244;2023-06-24T13:21:44;27.30;64.30
7194;DHT22;3638;48.820;9.244;2023-06-24T13:24:11;27.60;64.10
7194;DHT22;3638;48.820;9.244;2023-06-24T13:26:40;27.40;63.70
7194;DHT22;3638;48.820;9.244;2023-06-24T13:29:07;27.00;65.00
7194;DHT22;3638;48.820;9.244;2023-06-24T13:31:34;27.30;65.10
7194;DHT22;3638;48.820;9.244;2023-06-24T13:34:01;27.50;64.00
7194;DHT22;3638;48.820;9.244;2023-06-24T13:36:31;27.70;64.40
7194;DHT22;3638;48.820;9.244;2023-06-24T13:39:01;27.70;65.00
7194;DHT22;3638;48.820;9.244;2023-06-24T13:41:29;27.80;63.50
7194;DHT22;3638;48.820;9.244;2023-06-24T13:43:59;27.60;63.40
7194;DHT22;3638;48.820;9.244;2023-06-24T13:46:26;27.70;63.90
7194;DHT22;3638;48.820;9.244;2023-06-24T13:48:53;27.50;63.80
7194;DHT22;3638;48.820;9.244;2023-06-24T13:51:20;27.70;63.80
7194;DHT22;3638;48.820;9.244;2023-06-24T13:53:49;27.50;63.30
7194;DHT22;3638;48.820;9.244;2023-06-24T13:56:17;27.60;62.30
7194;DHT22;3638;48.820;9.244;2023-06-24T13:58:45;27.60;63.00
7194;DHT22;3638;48.820;9.244;2023-06-24T14:01:14;27.60;63.80
7194;DHT22;3638;48.820;9.244;2023-06-24T14:03:41;27.60;64.60
7194;DHT22;3638;48.820;9.244;2023-06-24T14:06:08;27.80;63.90
7194;DHT22;3638;48.820;9.244;2023-06-24T14:08:36;27.70;63.30
7194;DHT22;3638;48.820;9.244;2023-06-24T14:11:02;27.40;64.20
7194;DHT22;3638;48.820;9.244;2023-06-24T14:13:30;27.60;63.30
7194;DHT22;3638;48.820;9.244;2023-06-24T14:15:58;27.70;63.30
7194;DHT22;3638;48.820;9.244;2023-06-24T14:18:26;27.80;64.30
7194;DHT22;3638;48.820;9.244;2023-06-24T14:20:53;27.30;62.90
7194;DHT22;3638;48.820;9.244;2023-06-24T14:23:20;27.30;63.70
7194;DHT22;3638;48.820;9.244;2023-06-24T14:25:46;27.40;64.00
7194;DHT22;3638;48.820;9.244;2023-06-24T14:28:13;27.60;64.00
7194;DHT22;3638;48.820;9.244;2023-06-24T14:30:40;27.80;63.00
7194;DHT22;3638;48.820;9.244;2023-06-24T14:33:08;27.80;62.40
7194;DHT22;3638;48.820;9.244;2023-06-24T14:35:36;27.80;62.90
7194;DHT22;3638;48.820;9.244;2023-06-24T14:38:03;27.80;61.80
7194;DHT22;3638;48.820;9.244;2023-06-24T14:40:31;27.60;62.20
7194;DHT22;3638;48.820;9.244;2023-06-24T14:42:58;27.70;62.50
7194;DHT22;3638;48.820;9.244;2023-06-24T14:45:25;27.60;62.10
7194;DHT22;3638;48.820;9.244;2023-06-24T14:47:53;27.50;62.30
7194;DHT22;3638;48.820;9.244;2023-06-24T14:50:20;27.40;62.70
7194;DHT22;3638;48.820;9.244;2023-06-24T14:52:48;27.20;63.60
7194;DHT22;3638;48.820;9.244;2023-06-24T14:55:15;27.10;63.70
7194;DHT22;3638;48.820;9.244;2023-06-24T14:57:42;27.20;62.60
7194;DHT22;3638;48.820;9.244;2023-06-24T15:00:10;27.20;62.10
7194;DHT22;3638;48.820;9.244;2023-06-24T15:02:37;27.30;62.30
7194;DHT22;3638;48.820;9.244;2023-06-24T15:05:04;27.50;61.90
7194;DHT22;3638;48.820;9.244;2023-06-24T15:07:31;27.50;61.60
7194;DHT22;3638;48.820;9.244;2023-06-24T15:10:00;27.70;62.70
7194;DHT22;3638;48.820;9.244;2023-06-24T15:12:27;27.80;61.20
7194;DHT22;3638;48.820;9.244;2023-06-24T15:14:53;27.80;60.90
7194;DHT22;3638;48.820;9.244;2023-06-24T15:19:48;27.60;62.30
7194;DHT22;3638;48.820;9.244;2023-06-24T15:22:15;27.50;63.20
7194;DHT22;3638;48.820;9.244;2023-06-24T15:24:42;27.50;63.30
7194;DHT22;3638;48.820;9.244;2023-06-24T15:27:11;27.30;62.30
7194;DHT22;3638;48.820;9.244;2023-06-24T15:29:38;27.30;62.90
7194;DHT22;3638;48.820;9.244;2023-06-24T15:32:05;27.30;62.30
7194;DHT22;3638;48.820;9.244;2023-06-24T15:34:33;27.30;62.10
7194;DHT22;3638;48.820;9.244;2023-06-24T15:36:59;27.10;62.00
7194;DHT22;3638;48.820;9.244;2023-06-24T15:39:26;27.10;62.60
7194;DHT22;3638;48.820;9.244;2023-06-24T15:41:53;27.20;62.20
7194;DHT22;3638;48.820;9.244;2023-06-24T15:44:21;27.20;61.40
7194;DHT22;3638;48.820;9.244;2023-06-24T15:46:48;27.10;62.20
7194;DHT22;3638;48.820;9.244;2023-06-24T15:49:15;27.10;63.10
7194;DHT22;3638;48.820;9.244;2023-06-24T15:51:42;27.10;63.10
7194;DHT22;3638;48.820;9.244;2023-06-24T15:54:09;27.20;62.30
7194;DHT22;3638;48.820;9.244;2023-06-24T15:56:36;27.30;62.20
7194;DHT22;3638;48.820;9.244;2023-06-24T16:01:32;27.20;61.90
7194;DHT22;3638;48.820;9.244;2023-06-24T16:03:59;27.20;62.10
7194;DHT22;3638;48.820;9.244;2023-06-24T16:06:25;27.20;61.70
7194;DHT22;3638;48.820;9.244;2023-06-24T16:08:52;27.30;62.60
7194;DHT22;3638;48.820;9.244;2023-06-24T16:11:19;27.30;61.10
7194;DHT22;3638;48.820;9.244;2023-06-24T16:13:46;27.10;60.80
7194;DHT22;3638;48.820;9.244;2023-06-24T16:16:13;27.10;62.60
7194;DHT22;3638;48.820;9.244;2023-06-24T16:18:41;27.10;61.60
7194;DHT22;3638;48.820;9.244;2023-06-24T16:21:08;27.20;62.50
7194;DHT22;3638;48.820;9.244;2023-06-24T16:23:35;27.20;63.10
7194;DHT22;3638;48.820;9.244;2023-06-24T16:26:02;27.20;62.90
7194;DHT22;3638;48.820;9.244;2023-06-24T16:28:30;27.20;61.80
7194;DHT22;3638;48.820;9.244;2023-06-24T16:30:57;27.20;63.20
7194;DHT22;3638;48.820;9.244;2023-06-24T16:33:24;27.30;63.30
7194;DHT22;3638;48.820;9.244;2023-06-24T16:35:52;27.20;61.20
7194;DHT22;3638;48.820;9.244;2023-06-24T16:38:19;27.20;61.80
7194;DHT22;3638;48.820;9.244;2023-06-24T16:40:46;27.20;61.30
7194;DHT22;3638;48.820;9.244;2023-06-24T16:43:12;27.20;61.60
7194;DHT22;3638;48.820;9.244;2023-06-24T16:45:39;27.30;60.70
7194;DHT22;3638;48.820;9.244;2023-06-24T16:50:33;27.30;61.30
7194;DHT22;3638;48.820;9.244;2023-06-24T16:53:02;27.20;60.80
7194;DHT22;3638;48.820;9.244;2023-06-24T16:55:29;27.30;60.70
7194;DHT22;3638;48.820;9.244;2023-06-24T16:57:55;27.30;60.90
7194;DHT22;3638;48.820;9.244;2023-06-24T17:00:22;27.30;61.40
7194;DHT22;3638;48.820;9.244;2023-06-24T17:02:49;27.30;60.10
7194;DHT22;3638;48.820;9.244;2023-06-24T17:05:16;27.20;60.40
7194;DHT22;3638;48.820;9.244;2023-06-24T17:07:43;27.10;61.00
7194;DHT22;3638;48.820;9.244;2023-06-24T17:10:11;27.10;61.70
7194;DHT22;3638;48.820;9.244;2023-06-24T17:12:38;27.20;62.00
7194;DHT22;3638;48.820;9.244;2023-06-24T17:15:06;27.10;61.40
7194;DHT22;3638;48.820;9.244;2023-06-24T17:17:35;27.00;61.50
7194;DHT22;3638;48.820;9.244;2023-06-24T17:20:02;27.00;60.90
7194;DHT22;3638;48.820;9.244;2023-06-24T17:22:30;27.00;61.50
7194;DHT22;3638;48.820;9.244;2023-06-24T17:24:57;26.90;61.30
7194;DHT22;3638;48.820;9.244;2023-06-24T17:27:25;26.90;61.50
7194;DHT22;3638;48.820;9.244;2023-06-24T17:29:54;26.90;61.70
7194;DHT22;3638;48.820;9.244;2023-06-24T17:32:21;26.80;62.30
7194;DHT22;3638;48.820;9.244;2023-06-24T17:34:48;26.80;64.00
7194;DHT22;3638;48.820;9.244;2023-06-24T17:37:15;26.80;64.40
7194;DHT22;3638;48.820;9.244;2023-06-24T17:42:09;26.70;64.50
7194;DHT22;3638;48.820;9.244;2023-06-24T17:44:38;26.60;63.60
7194;DHT22;3638;48.820;9.244;2023-06-24T17:47:06;26.60;63.50